Terminal Aerodrome Forecast
Issued by NWS Duluth, MN

Home | Current Version | Previous Version | Text Only | Print | Product List | Glossary On
Versions: 1 2 3 4 5 6 7 8 9 10 11 12 13 14 15 16
660
FTUS43 KDLH 111736
TAFINL
TAF
KINL 111736Z 1118/1218 27006KT P6SM OVC070
     FM112200 28007KT P6SM OVC050
     FM120400 31010KT P6SM SCT030
     FM121200 32011G20KT P6SM FEW020=

USA.gov is the U.S. government's official web portal to all federal, state and local government web resources and services.